Time;durP1;ratioP1;P1;durP2;ratioP2;P2;SDS_P1;SDS_P2;PMS_P1;PMS_P2;Temp;Humidity;BMP_temperature;BMP_pressure;BME280_temperature;BME280_humidity;BME280_pressure;Samples;Min_cycle;Max_cycle;Signal;HPM_P1;HPM_P2
2021/11/05 00:02:34;;;;;;;4.82;3.10;;;8.90;91.10;;;;;;6294189;28;20135;-82
2021/11/05 00:05:36;;;;;;;5.50;3.10;;;8.90;91.30;;;;;;6277107;28;20128;-82
2021/11/05 00:08:38;;;;;;;4.35;2.85;;;8.80;91.40;;;;;;6281144;28;20453;-83
2021/11/05 00:11:41;;;;;;;6.20;3.63;;;8.80;91.40;;;;;;6260927;28;20052;-84
2021/11/05 00:14:43;;;;;;;6.57;3.90;;;8.80;91.60;;;;;;6258219;28;20131;-83
2021/11/05 00:17:45;;;;;;;7.95;3.80;;;8.80;91.60;;;;;;6256087;28;20188;-82
2021/11/05 00:20:47;;;;;;;6.97;3.95;;;8.90;91.70;;;;;;6256208;28;20049;-84
2021/11/05 00:23:49;;;;;;;5.68;4.22;;;8.90;91.80;;;;;;6255356;28;20105;-84
2021/11/05 00:26:52;;;;;;;5.30;3.38;;;8.90;91.40;;;;;;6256507;28;20057;-84
2021/11/05 00:29:54;;;;;;;7.10;3.63;;;8.90;91.60;;;;;;6254179;28;20099;-82
2021/11/05 00:32:55;;;;;;;4.80;3.00;;;8.90;91.50;;;;;;6255529;28;20052;-81
2021/11/05 00:35:57;;;;;;;6.05;3.95;;;8.90;91.70;;;;;;6255801;28;20042;-83
2021/11/05 00:38:59;;;;;;;5.90;3.60;;;8.90;91.60;;;;;;6273450;28;20041;-83
2021/11/05 00:42:02;;;;;;;6.75;3.83;;;8.90;91.70;;;;;;6280093;28;20147;-83
2021/11/05 00:45:05;;;;;;;5.38;3.63;;;8.90;91.50;;;;;;6278920;28;20049;-81
2021/11/05 00:48:07;;;;;;;8.93;3.88;;;8.80;91.60;;;;;;6279379;28;20037;-83
2021/11/05 00:51:09;;;;;;;9.55;3.80;;;8.80;91.60;;;;;;6280164;28;20060;-83
2021/11/05 00:54:12;;;;;;;8.43;4.20;;;8.80;91.60;;;;;;6279504;28;20045;-83
2021/11/05 00:57:15;;;;;;;11.90;4.18;;;8.80;91.70;;;;;;6279672;28;20059;-83
2021/11/05 01:00:17;;;;;;;10.88;4.93;;;8.80;91.60;;;;;;6279090;28;20215;-82
2021/11/05 01:03:19;;;;;;;7.85;4.65;;;8.80;91.70;;;;;;6278611;28;20049;-83
2021/11/05 01:06:20;;;;;;;9.13;4.35;;;8.70;91.80;;;;;;6278487;28;20060;-83
2021/11/05 01:09:22;;;;;;;6.13;4.18;;;8.70;91.60;;;;;;6278594;28;20045;-82
2021/11/05 01:12:25;;;;;;;6.40;4.35;;;8.70;91.70;;;;;;6274197;28;20067;-82
2021/11/05 01:15:27;;;;;;;17.40;4.85;;;8.60;91.80;;;;;;6254689;28;20125;-82
2021/11/05 01:18:29;;;;;;;6.05;3.55;;;8.70;91.90;;;;;;6271909;28;20418;-83
2021/11/05 01:21:31;;;;;;;13.48;4.68;;;8.70;91.80;;;;;;6278165;28;20045;-84
2021/11/05 01:24:33;;;;;;;5.95;3.75;;;8.60;91.80;;;;;;6277831;28;20522;-83
2021/11/05 01:27:36;;;;;;;11.60;4.55;;;8.60;91.70;;;;;;6278811;28;20403;-83
2021/11/05 01:30:38;;;;;;;8.10;4.05;;;8.60;91.80;;;;;;6279406;28;20091;-82
2021/11/05 01:33:41;;;;;;;5.97;3.53;;;8.60;91.90;;;;;;6279416;28;20060;-82
2021/11/05 01:36:42;;;;;;;5.78;2.92;;;8.60;92.00;;;;;;6279613;28;20041;-81
2021/11/05 01:39:44;;;;;;;5.03;3.03;;;8.60;91.90;;;;;;6274248;28;20411;-82
2021/11/05 01:42:47;;;;;;;5.07;3.15;;;8.60;92.00;;;;;;6280889;28;20073;-81
2021/11/05 01:45:50;;;;;;;4.40;2.83;;;8.50;92.00;;;;;;6278957;28;20044;-81
2021/11/05 01:48:52;;;;;;;5.05;3.03;;;8.50;92.10;;;;;;6279059;28;20406;-82
2021/11/05 01:51:55;;;;;;;5.07;3.35;;;8.50;91.90;;;;;;6280038;28;20098;-82
2021/11/05 01:54:57;;;;;;;4.55;2.45;;;8.50;92.10;;;;;;6280116;28;20048;-82
2021/11/05 01:58:00;;;;;;;7.13;4.50;;;8.50;92.10;;;;;;6279260;28;20184;-82
2021/11/05 02:01:02;;;;;;;5.18;2.92;;;8.60;92.40;;;;;;6279159;28;20155;-83
2021/11/05 02:04:04;;;;;;;4.47;3.13;;;8.60;92.00;;;;;;6279702;28;20056;-82
2021/11/05 02:07:11;;;;;;;3.30;2.58;;;8.60;92.00;;;;;;6244912;23;20053;-82
2021/11/05 02:10:13;;;;;;;4.60;2.35;;;8.70;92.10;;;;;;6230151;28;20042;-83
2021/11/05 02:13:19;;;;;;;4.63;2.70;;;8.70;91.80;;;;;;6230019;28;20093;-81
2021/11/05 02:16:23;;;;;;;5.47;3.63;;;8.70;91.80;;;;;;6205175;28;20125;-82
2021/11/05 02:19:27;;;;;;;4.47;2.50;;;8.70;92.00;;;;;;6204816;28;20054;-83
2021/11/05 02:22:30;;;;;;;3.92;2.78;;;8.70;91.80;;;;;;6205335;28;20085;-83
2021/11/05 02:25:32;;;;;;;4.00;2.58;;;8.80;91.90;;;;;;6205059;28;20610;-83
2021/11/05 02:28:36;;;;;;;5.97;2.05;;;8.80;91.90;;;;;;6205600;28;20129;-81
2021/11/05 02:31:39;;;;;;;3.90;2.47;;;8.90;92.20;;;;;;6205351;28;20443;-81
2021/11/05 02:34:41;;;;;;;3.20;2.20;;;8.90;91.80;;;;;;6205534;28;20050;-83
2021/11/05 02:37:46;;;;;;;8.27;3.00;;;8.90;91.90;;;;;;6204694;28;20161;-82
2021/11/05 02:40:48;;;;;;;4.28;2.50;;;8.90;91.80;;;;;;6204557;28;20503;-83
2021/11/05 02:43:50;;;;;;;4.95;2.50;;;9.00;92.00;;;;;;6204476;28;20522;-83
2021/11/05 02:46:54;;;;;;;7.22;3.53;;;9.00;92.00;;;;;;6205172;28;20133;-83
2021/11/05 02:49:58;;;;;;;5.15;2.90;;;9.00;91.80;;;;;;6203971;28;20058;-83
2021/11/05 02:53:01;;;;;;;5.97;2.90;;;8.90;91.90;;;;;;6204618;28;20046;-83
2021/11/05 02:56:04;;;;;;;4.85;2.50;;;9.00;91.90;;;;;;6204685;28;20555;-82
2021/11/05 02:59:06;;;;;;;5.32;3.25;;;9.00;91.80;;;;;;6214875;28;20053;-82
2021/11/05 03:02:08;;;;;;;4.95;3.30;;;8.90;91.80;;;;;;6228936;28;20048;-83
2021/11/05 03:05:11;;;;;;;4.60;2.90;;;8.90;91.90;;;;;;6229028;28;20117;-82
2021/11/05 03:08:14;;;;;;;5.60;3.33;;;8.90;91.80;;;;;;6228727;28;20044;-84
2021/11/05 03:11:16;;;;;;;4.93;2.65;;;8.80;92.10;;;;;;6228293;28;20054;-82
2021/11/05 03:14:17;;;;;;;6.55;3.13;;;8.90;92.10;;;;;;6227362;28;20043;-83
2021/11/05 03:17:19;;;;;;;4.80;3.20;;;8.90;92.10;;;;;;6232617;28;20046;-81
2021/11/05 03:20:22;;;;;;;8.27;3.58;;;8.90;92.00;;;;;;6252698;28;20040;-80
2021/11/05 03:23:25;;;;;;;4.53;3.13;;;8.90;92.00;;;;;;6242053;28;20162;-82
2021/11/05 03:26:27;;;;;;;5.70;3.80;;;8.90;92.10;;;;;;6232762;28;20132;-84
2021/11/05 03:29:29;;;;;;;7.38;3.38;;;8.90;91.90;;;;;;6231174;28;20512;-84
2021/11/05 03:32:31;;;;;;;5.82;3.72;;;8.90;92.10;;;;;;6233203;28;20078;-83
2021/11/05 03:35:33;;;;;;;6.22;3.75;;;8.90;92.20;;;;;;6233013;28;20062;-84
2021/11/05 03:38:36;;;;;;;8.27;4.35;;;8.90;92.20;;;;;;6232804;28;20050;-84
2021/11/05 03:41:38;;;;;;;7.13;3.95;;;9.00;92.00;;;;;;6234848;28;20105;-84
2021/11/05 03:44:40;;;;;;;7.82;5.00;;;8.90;92.10;;;;;;6237543;28;20128;-84
2021/11/05 03:47:42;;;;;;;7.35;4.47;;;9.00;92.20;;;;;;6235043;28;20065;-83
2021/11/05 03:50:44;;;;;;;7.97;4.50;;;9.00;92.10;;;;;;6233496;28;20455;-82
2021/11/05 03:53:47;;;;;;;7.57;4.85;;;9.00;92.10;;;;;;6231622;28;20081;-83
2021/11/05 03:56:49;;;;;;;8.98;4.65;;;9.10;92.00;;;;;;6234665;28;20046;-83
2021/11/05 03:59:50;;;;;;;8.32;4.90;;;9.00;92.00;;;;;;6234254;28;20049;-83
2021/11/05 04:02:52;;;;;;;6.40;4.35;;;9.00;91.90;;;;;;6236877;28;20076;-82
2021/11/05 04:05:54;;;;;;;9.77;5.60;;;9.00;91.90;;;;;;6235881;28;20589;-82
2021/11/05 04:08:57;;;;;;;9.00;4.43;;;9.00;92.00;;;;;;6233418;28;20050;-84
2021/11/05 04:11:59;;;;;;;10.05;4.90;;;9.00;92.00;;;;;;6235856;28;20049;-84
2021/11/05 04:15:01;;;;;;;9.05;4.72;;;9.00;92.10;;;;;;6235738;28;20093;-83
2021/11/05 04:18:02;;;;;;;7.80;5.28;;;9.00;92.10;;;;;;6236305;28;20093;-83
2021/11/05 04:21:05;;;;;;;6.85;4.45;;;9.00;92.00;;;;;;6234487;28;20678;-83
2021/11/05 04:24:08;;;;;;;8.05;4.40;;;9.00;92.10;;;;;;6234566;28;20112;-84
2021/11/05 04:27:09;;;;;;;7.65;5.43;;;9.10;92.20;;;;;;6232287;28;20054;-82
2021/11/05 04:30:15;;;;;;;9.02;4.70;;;9.20;92.00;;;;;;6231247;28;20128;-84
2021/11/05 04:33:17;;;;;;;10.30;5.15;;;9.20;92.10;;;;;;6234325;28;20085;-85
2021/11/05 04:36:21;;;;;;;8.20;5.25;;;9.30;91.90;;;;;;6235948;28;20569;-83
2021/11/05 04:39:24;;;;;;;8.02;5.00;;;9.20;91.90;;;;;;6243364;28;20056;-81
2021/11/05 04:42:26;;;;;;;9.45;5.55;;;9.20;91.90;;;;;;6240965;28;20062;-84
2021/11/05 04:45:28;;;;;;;7.38;4.88;;;9.20;91.90;;;;;;6232990;28;20549;-83
2021/11/05 04:48:30;;;;;;;9.45;5.03;;;9.20;92.00;;;;;;6230843;28;20092;-82
2021/11/05 04:51:32;;;;;;;8.65;5.57;;;9.20;91.80;;;;;;6231763;28;20060;-83
2021/11/05 04:54:35;;;;;;;9.75;5.63;;;9.20;91.70;;;;;;6232759;28;20131;-83
2021/11/05 04:57:37;;;;;;;8.77;5.65;;;9.20;91.80;;;;;;6232013;28;20499;-85
2021/11/05 05:00:39;;;;;;;8.98;5.18;;;9.20;91.90;;;;;;6231661;28;20041;-84
2021/11/05 05:03:41;;;;;;;7.57;5.30;;;9.20;92.10;;;;;;6231774;28;20419;-84
2021/11/05 05:06:43;;;;;;;8.63;5.45;;;9.20;91.80;;;;;;6232214;28;20045;-84
2021/11/05 05:09:46;;;;;;;8.32;5.55;;;9.10;91.70;;;;;;6230899;28;20065;-83
2021/11/05 05:12:48;;;;;;;9.88;5.13;;;9.10;91.80;;;;;;6231924;28;20046;-84
2021/11/05 05:15:50;;;;;;;11.35;5.93;;;9.10;91.80;;;;;;6229703;28;20041;-85
2021/11/05 05:18:51;;;;;;;7.90;5.05;;;9.10;91.90;;;;;;6231344;28;20046;-83
2021/11/05 05:21:53;;;;;;;8.40;5.72;;;9.20;92.00;;;;;;6231629;28;20045;-83
2021/11/05 05:24:56;;;;;;;12.02;5.35;;;9.20;91.90;;;;;;6231317;28;20212;-83
2021/11/05 05:27:58;;;;;;;8.77;5.53;;;9.20;91.90;;;;;;6231178;28;20129;-85
2021/11/05 05:31:00;;;;;;;9.30;5.57;;;9.20;92.00;;;;;;6229541;28;20105;-83
2021/11/05 05:34:03;;;;;;;9.77;5.63;;;9.10;92.00;;;;;;6229452;28;20050;-83
2021/11/05 05:37:05;;;;;;;14.45;6.53;;;9.20;92.00;;;;;;6228262;28;20085;-83
2021/11/05 05:40:10;;;;;;;11.38;5.95;;;9.20;92.00;;;;;;6229304;28;20049;-84
2021/11/05 05:43:12;;;;;;;13.13;6.70;;;9.10;92.10;;;;;;6229613;28;20046;-82
2021/11/05 05:46:13;;;;;;;11.10;6.38;;;9.20;92.20;;;;;;6229940;28;20050;-84
2021/11/05 05:49:15;;;;;;;11.35;6.00;;;9.20;92.00;;;;;;6231298;28;20499;-81
2021/11/05 05:52:17;;;;;;;12.27;6.70;;;9.20;92.00;;;;;;6231932;28;20045;-82
2021/11/05 05:55:24;;;;;;;13.95;6.90;;;9.10;92.00;;;;;;6231504;28;20423;-82
2021/11/05 05:58:26;;;;;;;13.45;7.18;;;9.10;92.00;;;;;;6232334;28;20053;-82
2021/11/05 06:01:28;;;;;;;11.20;6.65;;;9.20;92.20;;;;;;6232226;28;20050;-82
2021/11/05 06:04:30;;;;;;;11.32;6.15;;;9.20;92.10;;;;;;6232692;28;20046;-83
2021/11/05 06:07:32;;;;;;;9.52;5.68;;;9.20;92.10;;;;;;6230385;28;20423;-81
2021/11/05 06:10:35;;;;;;;10.93;6.95;;;9.20;92.30;;;;;;6227934;28;20054;-84
2021/11/05 06:13:37;;;;;;;12.80;6.40;;;9.20;92.30;;;;;;6229239;28;20446;-83
2021/11/05 06:16:39;;;;;;;12.73;5.82;;;9.20;92.20;;;;;;6227113;28;20096;-82
2021/11/05 06:19:40;;;;;;;11.55;6.07;;;9.30;92.10;;;;;;6231506;28;20134;-83
2021/11/05 06:22:42;;;;;;;12.18;6.20;;;9.30;92.20;;;;;;6230886;28;20151;-83
2021/11/05 06:25:46;;;;;;;12.13;6.10;;;9.30;92.20;;;;;;6229852;28;20100;-82
2021/11/05 06:28:48;;;;;;;9.90;5.35;;;9.30;92.30;;;;;;6233722;28;20045;-83
2021/11/05 06:31:50;;;;;;;12.95;7.10;;;9.40;92.10;;;;;;6229813;28;20049;-83
2021/11/05 06:34:52;;;;;;;13.10;7.43;;;9.30;92.10;;;;;;6230468;28;20050;-81
2021/11/05 06:37:54;;;;;;;10.90;6.53;;;9.40;92.00;;;;;;6231175;28;20132;-82
2021/11/05 06:40:57;;;;;;;11.15;6.13;;;9.30;92.00;;;;;;6228661;28;20041;-83
2021/11/05 06:43:59;;;;;;;15.57;7.68;;;9.40;92.20;;;;;;6229536;28;20069;-81
2021/11/05 06:47:01;;;;;;;13.52;6.63;;;9.40;92.10;;;;;;6230755;28;20076;-82
2021/11/05 06:50:05;;;;;;;13.70;7.00;;;9.50;92.00;;;;;;6235778;28;20042;-80
2021/11/05 06:53:07;;;;;;;10.80;7.20;;;9.40;91.90;;;;;;6251974;28;20106;-80
2021/11/05 06:56:10;;;;;;;11.52;6.35;;;9.50;92.10;;;;;;6242794;28;20133;-83
2021/11/05 06:59:11;;;;;;;14.07;7.07;;;9.50;92.00;;;;;;6238919;28;20060;-82
2021/11/05 07:02:13;;;;;;;16.40;7.93;;;9.50;92.10;;;;;;6238389;28;20049;-82
2021/11/05 07:05:16;;;;;;;12.43;6.68;;;9.60;92.00;;;;;;6236450;28;20054;-82
2021/11/05 07:08:18;;;;;;;13.55;7.78;;;9.50;91.90;;;;;;6236883;28;20072;-84
2021/11/05 07:11:21;;;;;;;12.80;7.20;;;9.60;92.10;;;;;;6237262;28;20042;-83
2021/11/05 07:14:23;;;;;;;10.27;6.90;;;9.60;92.00;;;;;;6235567;28;20069;-84
2021/11/05 07:17:25;;;;;;;12.15;7.63;;;9.70;91.80;;;;;;6238565;28;20092;-84
2021/11/05 07:20:27;;;;;;;13.85;7.15;;;9.60;92.30;;;;;;6232161;28;20042;-83
2021/11/05 07:23:28;;;;;;;12.90;7.00;;;9.60;91.70;;;;;;6232456;28;20112;-83
2021/11/05 07:26:36;;;;;;;11.57;7.38;;;9.60;91.90;;;;;;6232906;28;20089;-82
2021/11/05 07:29:41;;;;;;;13.73;7.07;;;9.60;92.00;;;;;;6233986;28;20078;-82
2021/11/05 07:32:45;;;;;;;14.57;7.53;;;9.70;92.10;;;;;;6231400;28;20074;-84
2021/11/05 07:35:48;;;;;;;11.93;6.82;;;9.70;92.00;;;;;;6231179;28;20050;-83
2021/11/05 07:38:49;;;;;;;18.38;6.50;;;9.70;91.90;;;;;;6234810;28;20054;-84
2021/11/05 07:41:53;;;;;;;12.43;7.45;;;9.70;92.10;;;;;;6235562;28;20038;-83
2021/11/05 07:44:54;;;;;;;11.60;6.18;;;9.80;92.30;;;;;;6230223;28;20049;-83
2021/11/05 07:47:57;;;;;;;14.32;7.35;;;9.80;91.90;;;;;;6212892;28;20049;-82
2021/11/05 07:50:59;;;;;;;8.15;5.35;;;9.90;91.90;;;;;;6233802;28;20045;-81
2021/11/05 07:54:01;;;;;;;11.15;6.63;;;9.90;91.80;;;;;;6222527;28;20121;-84
2021/11/05 07:57:04;;;;;;;10.75;5.93;;;9.90;91.70;;;;;;6209086;28;20046;-84
2021/11/05 08:00:07;;;;;;;14.18;7.25;;;9.90;91.80;;;;;;6211116;28;20053;-84
2021/11/05 08:03:09;;;;;;;18.27;6.88;;;9.90;91.80;;;;;;6205466;28;20162;-82
2021/11/05 08:06:11;;;;;;;12.60;7.13;;;9.90;91.70;;;;;;6206690;28;20096;-81
2021/11/05 08:09:13;;;;;;;10.63;5.97;;;9.90;91.90;;;;;;6201477;28;20415;-81
2021/11/05 08:12:16;;;;;;;9.63;6.38;;;9.90;92.00;;;;;;6203377;28;20135;-85
2021/11/05 08:15:18;;;;;;;11.82;6.78;;;10.00;92.00;;;;;;6203193;28;20050;-82
2021/11/05 08:18:20;;;;;;;14.15;6.97;;;10.00;91.90;;;;;;6210043;28;20579;-81
2021/11/05 08:21:22;;;;;;;12.52;6.18;;;10.10;92.00;;;;;;6227004;28;20057;-84
2021/11/05 08:24:25;;;;;;;12.20;6.43;;;10.10;92.00;;;;;;6227470;28;20042;-83
2021/11/05 08:27:28;;;;;;;10.48;5.63;;;10.20;91.80;;;;;;6227093;28;20065;-81
2021/11/05 08:30:31;;;;;;;12.38;7.05;;;10.30;92.00;;;;;;6230100;28;20537;-82
2021/11/05 08:33:33;;;;;;;11.65;6.60;;;10.30;91.70;;;;;;6231850;28;20078;-83
2021/11/05 08:36:35;;;;;;;11.50;6.40;;;10.40;91.80;;;;;;6252547;23;20137;-79
2021/11/05 08:39:37;;;;;;;14.40;7.22;;;10.50;91.60;;;;;;6258277;28;20477;-82
2021/11/05 08:42:40;;;;;;;12.63;6.88;;;10.70;91.60;;;;;;6259291;28;20045;-83
2021/11/05 08:45:42;;;;;;;13.07;7.13;;;10.80;91.40;;;;;;6258976;28;20056;-83
2021/11/05 08:48:44;;;;;;;10.23;6.78;;;11.10;91.30;;;;;;6259340;28;20566;-82
2021/11/05 08:51:48;;;;;;;9.60;6.40;;;11.20;90.70;;;;;;6255101;28;20558;-82
2021/11/05 08:54:49;;;;;;;10.15;6.10;;;11.20;91.00;;;;;;6256117;28;20130;-82
2021/11/05 08:57:52;;;;;;;11.82;5.97;;;11.30;90.90;;;;;;6256573;28;20084;-83
2021/11/05 09:00:54;;;;;;;9.48;6.35;;;11.40;90.90;;;;;;6256666;28;20049;-82
2021/11/05 09:03:56;;;;;;;9.80;5.95;;;11.40;90.70;;;;;;6256059;28;20049;-84
2021/11/05 09:06:58;;;;;;;14.18;5.85;;;11.40;90.70;;;;;;6258909;28;20136;-85
2021/11/05 09:10:00;;;;;;;12.60;5.68;;;11.50;90.50;;;;;;6252972;28;20053;-82
2021/11/05 09:13:04;;;;;;;11.60;6.05;;;11.50;90.30;;;;;;6254943;28;20077;-83
2021/11/05 09:16:07;;;;;;;7.93;5.15;;;11.40;90.00;;;;;;6258902;28;20384;-84
2021/11/05 09:19:08;;;;;;;14.15;7.28;;;11.40;90.10;;;;;;6263302;28;20476;-84
2021/11/05 09:22:12;;;;;;;10.98;5.40;;;11.50;89.30;;;;;;6263188;28;20088;-80
2021/11/05 09:25:20;;;;;;;10.23;6.25;;;11.50;89.80;;;;;;6265869;28;20046;-83
2021/11/05 09:28:23;;;;;;;10.15;6.13;;;11.70;90.10;;;;;;6261747;28;20042;-82
2021/11/05 09:31:26;;;;;;;7.85;5.07;;;11.90;89.60;;;;;;6265011;28;20073;-82
2021/11/05 09:34:31;;;;;;;7.85;5.15;;;12.00;88.60;;;;;;6262383;28;20059;-82
2021/11/05 09:37:33;;;;;;;7.97;5.00;;;12.00;88.90;;;;;;6246126;28;20060;-81
2021/11/05 09:40:35;;;;;;;6.97;4.75;;;12.10;89.20;;;;;;6238846;28;20531;-82
2021/11/05 09:43:40;;;;;;;9.23;5.30;;;12.20;89.20;;;;;;6240663;28;20085;-81
2021/11/05 09:46:42;;;;;;;9.65;6.00;;;12.30;88.00;;;;;;6239674;28;20265;-82
2021/11/05 09:49:44;;;;;;;8.55;5.45;;;12.20;88.30;;;;;;6239773;28;20077;-82
2021/11/05 09:52:56;;;;;;;10.20;5.53;;;12.30;87.80;;;;;;6262994;28;20049;-82
2021/11/05 09:55:59;;;;;;;7.18;4.90;;;12.30;87.20;;;;;;6263890;28;20037;-81
2021/11/05 09:59:02;;;;;;;13.93;6.22;;;12.20;87.50;;;;;;6266002;28;20042;-82
2021/11/05 10:02:04;;;;;;;10.55;5.05;;;12.20;88.00;;;;;;6264586;28;20053;-81
2021/11/05 10:05:06;;;;;;;8.68;5.78;;;12.20;88.10;;;;;;6264622;28;20045;-82
2021/11/05 10:08:08;;;;;;;10.90;5.90;;;12.30;87.80;;;;;;6264864;28;20049;-81
2021/11/05 10:11:24;;;;;;;8.13;4.78;;;12.30;87.60;;;;;;6265484;28;20120;-82
2021/11/05 10:14:27;;;;;;;9.73;5.50;;;12.40;87.60;;;;;;6265055;28;20053;-82
2021/11/05 10:17:32;;;;;;;9.13;5.22;;;12.50;87.60;;;;;;6263764;28;20129;-82
2021/11/05 10:20:34;;;;;;;9.27;5.93;;;12.50;86.20;;;;;;6259080;28;20046;-81
2021/11/05 10:23:39;;;;;;;9.57;5.90;;;12.50;86.70;;;;;;6268104;28;20061;-79
2021/11/05 10:26:41;;;;;;;8.30;6.35;;;12.50;86.10;;;;;;6276751;28;20096;-81
2021/11/05 10:29:44;;;;;;;9.65;5.40;;;12.60;87.00;;;;;;6268531;28;20065;-79
2021/11/05 10:32:55;;;;;;;8.15;4.47;;;12.60;85.90;;;;;;6256731;28;20051;-81
2021/11/05 10:36:01;;;;;;;8.05;4.75;;;12.60;86.30;;;;;;6248262;28;20054;-80
2021/11/05 10:39:05;;;;;;;7.25;4.93;;;12.80;86.40;;;;;;6258573;28;20147;-81
2021/11/05 10:42:10;;;;;;;7.78;5.07;;;13.00;85.50;;;;;;6260853;28;20058;-81
2021/11/05 10:45:16;;;;;;;9.45;4.90;;;13.10;85.40;;;;;;6259221;28;20045;-82
2021/11/05 10:48:19;;;;;;;7.90;4.90;;;13.10;84.40;;;;;;6256078;28;20041;-80
2021/11/05 10:51:23;;;;;;;7.15;4.25;;;13.20;84.10;;;;;;6255361;28;20104;-82
2021/11/05 10:54:25;;;;;;;6.68;4.70;;;13.20;83.50;;;;;;6259571;28;20041;-80
2021/11/05 10:57:38;;;;;;;9.68;5.65;;;13.40;84.50;;;;;;6253472;28;20119;-80
2021/11/05 11:00:42;;;;;;;7.22;4.93;;;13.70;83.50;;;;;;6253172;28;20048;-80
2021/11/05 11:03:46;;;;;;;7.00;4.78;;;13.80;81.20;;;;;;6255579;28;20111;-80
2021/11/05 11:06:49;;;;;;;9.18;4.80;;;13.80;80.40;;;;;;6257318;28;20046;-79
2021/11/05 11:09:50;;;;;;;8.40;5.57;;;13.90;81.00;;;;;;6256807;28;20049;-83
2021/11/05 11:12:52;;;;;;;10.65;5.30;;;14.10;82.10;;;;;;6254469;28;20503;-79
2021/11/05 11:15:56;;;;;;;10.40;5.18;;;14.40;81.00;;;;;;6253343;28;20122;-80
2021/11/05 11:19:00;;;;;;;9.27;5.53;;;14.40;80.20;;;;;;6255584;28;20136;-80
2021/11/05 11:22:04;;;;;;;7.63;5.13;;;14.40;79.60;;;;;;6254291;28;20522;-82
2021/11/05 11:25:07;;;;;;;9.38;4.95;;;14.50;79.90;;;;;;6255827;28;20128;-81
2021/11/05 11:28:09;;;;;;;7.82;4.93;;;14.60;78.70;;;;;;6257618;28;20467;-80
2021/11/05 11:31:13;;;;;;;5.97;4.22;;;14.50;77.90;;;;;;6252982;28;20127;-82
2021/11/05 11:34:16;;;;;;;8.73;5.38;;;14.50;77.00;;;;;;6252595;28;20045;-81
2021/11/05 11:37:19;;;;;;;9.40;5.05;;;14.50;79.20;;;;;;6253540;28;20133;-83
2021/11/05 11:40:21;;;;;;;7.72;5.10;;;14.50;78.80;;;;;;6260209;28;20091;-80
2021/11/05 11:43:23;;;;;;;5.70;4.20;;;14.50;79.40;;;;;;6256043;28;20053;-80
2021/11/05 11:46:27;;;;;;;6.47;4.55;;;14.50;79.30;;;;;;6257657;28;20049;-81
2021/11/05 11:49:43;;;;;;;8.35;4.90;;;14.50;77.90;;;;;;6253072;28;20045;-82
2021/11/05 11:52:45;;;;;;;7.60;4.88;;;14.40;78.70;;;;;;6252713;28;20080;-80
2021/11/05 11:56:00;;;;;;;6.30;4.28;;;14.40;79.30;;;;;;6253480;28;20065;-82
2021/11/05 11:59:06;;;;;;;5.85;4.40;;;14.50;79.60;;;;;;6254763;28;20049;-80
2021/11/05 12:02:32;;;;;;;8.70;5.97;;;14.50;79.70;;;;;;6254664;28;20046;-81
2021/11/05 12:05:40;;;;;;;7.30;4.95;;;14.50;78.40;;;;;;6258386;28;20128;-81
2021/11/05 12:08:45;;;;;;;7.68;4.75;;;14.50;78.80;;;;;;6256694;28;20045;-80
2021/11/05 12:11:46;;;;;;;5.88;4.50;;;14.50;79.80;;;;;;6256068;28;20129;-80
2021/11/05 12:15:24;;;;;;;8.50;4.72;;;14.50;78.20;;;;;;6256693;28;20049;-81
2021/11/05 12:18:27;;;;;;;6.68;4.82;;;14.40;77.70;;;;;;6258194;28;20132;-82
2021/11/05 12:21:34;;;;;;;7.13;4.22;;;14.40;78.30;;;;;;6255991;28;20041;-78
2021/11/05 12:24:36;;;;;;;7.30;4.57;;;14.40;78.80;;;;;;6255203;28;20053;-79
2021/11/05 12:27:38;;;;;;;6.65;4.32;;;14.40;78.90;;;;;;6255707;28;20127;-81
2021/11/05 12:30:40;;;;;;;9.68;4.70;;;14.40;79.00;;;;;;6256258;28;20100;-80
2021/11/05 12:33:43;;;;;;;8.43;4.82;;;14.30;79.20;;;;;;6254732;28;20068;-80
2021/11/05 12:36:49;;;;;;;11.32;6.07;;;14.30;79.60;;;;;;6255581;28;20056;-81
2021/11/05 12:39:51;;;;;;;9.43;5.15;;;14.30;79.80;;;;;;6255757;28;20048;-81
2021/11/05 12:42:54;;;;;;;8.38;5.25;;;14.20;79.30;;;;;;6256405;28;20051;-82
2021/11/05 12:45:58;;;;;;;8.93;4.65;;;14.10;80.30;;;;;;6256660;28;20087;-84
2021/11/05 12:49:02;;;;;;;8.50;5.13;;;14.10;80.10;;;;;;6257621;28;20051;-83
2021/11/05 12:52:04;;;;;;;6.28;4.82;;;14.00;80.00;;;;;;6259578;28;20048;-82
2021/11/05 12:55:07;;;;;;;8.57;5.13;;;14.00;80.10;;;;;;6258844;28;20388;-83
2021/11/05 12:58:15;;;;;;;8.55;5.32;;;13.90;80.40;;;;;;6258785;28;20498;-81
2021/11/05 13:01:19;;;;;;;6.75;4.75;;;13.80;80.50;;;;;;6259598;28;20037;-83
2021/11/05 13:04:24;;;;;;;9.23;5.25;;;13.70;80.80;;;;;;6259422;28;20045;-82
2021/11/05 13:07:26;;;;;;;8.65;4.85;;;13.70;81.30;;;;;;6258015;28;20049;-82
2021/11/05 13:10:29;;;;;;;7.72;5.07;;;13.70;82.10;;;;;;6260035;28;20518;-81
2021/11/05 13:13:31;;;;;;;4.60;3.42;;;13.80;81.60;;;;;;6255047;28;20077;-82
2021/11/05 13:16:36;;;;;;;6.95;4.60;;;13.80;81.50;;;;;;6257357;28;20057;-82
2021/11/05 13:19:45;;;;;;;6.00;4.53;;;13.90;81.60;;;;;;6259380;28;20055;-83
2021/11/05 13:22:48;;;;;;;5.45;3.95;;;13.90;81.70;;;;;;6252806;28;20052;-83
2021/11/05 13:25:50;;;;;;;6.88;4.35;;;13.90;81.40;;;;;;6232189;28;20100;-80
2021/11/05 13:28:52;;;;;;;9.68;4.50;;;13.80;79.60;;;;;;6230574;28;20048;-83
2021/11/05 13:32:08;;;;;;;8.23;4.50;;;13.80;80.00;;;;;;6231389;28;20583;-80
2021/11/05 13:35:11;;;;;;;14.00;10.35;;;13.70;80.40;;;;;;6230294;28;20057;-80
2021/11/05 13:38:13;;;;;;;5.78;4.22;;;13.70;81.00;;;;;;6228065;28;20060;-81
2021/11/05 13:41:18;;;;;;;11.75;7.43;;;13.70;80.90;;;;;;6229505;28;20045;-80
2021/11/05 13:44:20;;;;;;;7.95;6.03;;;13.70;81.10;;;;;;6230551;28;20065;-82
2021/11/05 13:47:21;;;;;;;20.23;16.50;;;13.70;81.10;;;;;;6231767;28;20129;-82
2021/11/05 13:50:25;;;;;;;9.05;4.38;;;13.80;81.20;;;;;;6233619;28;20056;-85
2021/11/05 13:53:27;;;;;;;7.82;3.88;;;13.90;81.40;;;;;;6254105;28;20049;-82
2021/11/05 13:56:33;;;;;;;9.88;6.78;;;13.90;80.60;;;;;;6258717;28;20036;-81
2021/11/05 13:59:35;;;;;;;9.63;6.90;;;14.00;80.60;;;;;;6277435;28;20045;-81
2021/11/05 14:02:37;;;;;;;7.60;4.18;;;14.00;80.20;;;;;;6269604;28;20072;-83
2021/11/05 14:05:40;;;;;;;8.38;6.07;;;14.00;79.30;;;;;;6257264;28;20461;-81
2021/11/05 14:09:01;;;;;;;6.55;4.78;;;14.00;79.10;;;;;;6345175;23;20122;-87
2021/11/05 14:12:16;;;;;;;5.93;3.70;;;14.00;79.20;;;;;;6284768;28;20088;-87
2021/11/05 14:15:24;;;;;;;7.75;3.88;;;14.10;79.10;;;;;;6282667;28;20480;-84
2021/11/05 14:18:26;;;;;;;5.18;3.25;;;14.10;79.60;;;;;;6282475;28;20060;-84
2021/11/05 14:21:29;;;;;;;5.22;3.28;;;14.20;78.90;;;;;;6281655;28;20537;-87
2021/11/05 14:24:34;;;;;;;10.88;5.88;;;14.20;76.90;;;;;;6270653;28;20439;-85
2021/11/05 14:27:36;;;;;;;9.57;4.82;;;14.40;79.80;;;;;;6259065;28;25703;-84
2021/11/05 14:30:38;;;;;;;6.13;3.80;;;14.60;79.60;;;;;;6258383;28;20232;-83
2021/11/05 14:33:40;;;;;;;5.28;4.05;;;14.90;78.70;;;;;;6258448;28;20109;-84
2021/11/05 14:36:43;;;;;;;9.88;5.75;;;15.10;78.10;;;;;;6258905;28;20099;-83
2021/11/05 14:39:48;;;;;;;5.97;4.75;;;15.40;77.00;;;;;;6255980;28;20052;-85
2021/11/05 14:43:06;;;;;;;4.50;3.33;;;15.60;76.80;;;;;;6256840;28;20049;-86
2021/11/05 14:46:11;;;;;;;6.30;4.00;;;15.70;74.70;;;;;;6257183;28;20128;-83
2021/11/05 14:49:18;;;;;;;6.15;3.53;;;15.70;75.00;;;;;;6257419;28;20118;-87
2021/11/05 14:52:21;;;;;;;10.82;4.25;;;15.70;74.90;;;;;;6272561;28;20617;-87
2021/11/05 14:55:36;;;;;;;7.90;4.18;;;15.80;75.20;;;;;;6279544;28;20063;-86
2021/11/05 14:58:41;;;;;;;5.55;4.18;;;15.90;74.80;;;;;;6284696;28;20144;-84
2021/11/05 15:01:43;;;;;;;5.43;4.18;;;15.80;74.10;;;;;;6278128;28;20041;-83
2021/11/05 15:04:45;;;;;;;11.73;4.45;;;15.80;74.10;;;;;;6289255;28;20044;-81
2021/11/05 15:07:50;;;;;;;7.90;4.28;;;15.70;74.50;;;;;;6291179;28;20056;-84
2021/11/05 15:10:52;;;;;;;7.13;4.47;;;15.60;74.30;;;;;;6282617;28;20045;-86
2021/11/05 15:13:57;;;;;;;6.82;5.15;;;15.50;74.60;;;;;;6282810;28;20045;-85
2021/11/05 15:17:02;;;;;;;6.95;4.93;;;15.50;74.50;;;;;;6280315;28;20060;-87
2021/11/05 15:20:05;;;;;;;6.43;4.05;;;15.30;73.50;;;;;;6280082;28;20072;-85
2021/11/05 15:23:08;;;;;;;7.78;4.25;;;15.10;73.90;;;;;;6266778;28;20400;-83
2021/11/05 15:26:13;;;;;;;5.90;4.25;;;14.90;74.90;;;;;;6264870;28;20036;-85
2021/11/05 15:29:15;;;;;;;6.53;4.45;;;14.80;75.50;;;;;;6281170;28;20136;-83
2021/11/05 15:32:17;;;;;;;9.18;4.68;;;14.70;75.60;;;;;;6280401;28;20045;-83
2021/11/05 15:35:19;;;;;;;10.23;4.10;;;14.40;76.10;;;;;;6280072;28;20115;-84
2021/11/05 15:38:25;;;;;;;8.05;4.15;;;14.20;76.60;;;;;;6277833;28;20121;-84
2021/11/05 15:41:27;;;;;;;6.78;4.13;;;14.00;76.90;;;;;;6276103;28;20122;-81
2021/11/05 15:44:28;;;;;;;5.43;4.00;;;13.80;78.30;;;;;;6276832;28;20410;-80
2021/11/05 15:47:30;;;;;;;6.72;3.45;;;13.70;78.80;;;;;;6277410;28;20049;-79
2021/11/05 15:50:34;;;;;;;7.53;3.58;;;13.50;79.60;;;;;;6277404;28;20053;-79
2021/11/05 15:53:38;;;;;;;4.32;3.28;;;13.30;79.70;;;;;;6277766;28;20506;-80
2021/11/05 15:56:40;;;;;;;8.45;3.85;;;13.10;80.70;;;;;;6278462;28;20041;-79